Time;durP1;ratioP1;P1;durP2;ratioP2;P2;SDS_P1;SDS_P2;PMS_P1;PMS_P2;Temp;Humidity;BMP_temperature;BMP_pressure;BME280_temperature;BME280_humidity;BME280_pressure;Samples;Min_cycle;Max_cycle;Signal;HPM_P1;HPM_P2
2022/08/24 00:00:07;;;;;;;;;;;20.10;99.90;;;;;;5073629;28;19925;-69
2022/08/24 00:02:35;;;;;;;;;;;20.10;99.90;;;;;;5073774;28;20029;-69
2022/08/24 00:05:02;;;;;;;;;;;20.00;99.90;;;;;;5073751;28;19928;-69
2022/08/24 00:07:29;;;;;;;;;;;20.10;99.90;;;;;;5073728;28;19924;-68
2022/08/24 00:09:55;;;;;;;;;;;20.10;99.90;;;;;;5072857;28;19950;-69
2022/08/24 00:12:22;;;;;;;;;;;20.10;99.90;;;;;;5070003;28;20392;-68
2022/08/24 00:14:49;;;;;;;;;;;20.00;99.90;;;;;;5083119;28;20475;-68
2022/08/24 00:17:16;;;;;;;;;;;20.00;99.90;;;;;;5068295;28;19971;-68
2022/08/24 00:19:45;;;;;;;;;;;19.90;99.90;;;;;;5072416;28;19925;-68
2022/08/24 00:22:12;;;;;;;;;;;19.90;99.90;;;;;;5070404;28;19978;-69
2022/08/24 00:24:39;;;;;;;;;;;19.80;99.90;;;;;;5072919;28;20307;-69
2022/08/24 00:27:06;;;;;;;;;;;19.80;99.90;;;;;;5073279;28;19931;-68
2022/08/24 00:29:33;;;;;;;;;;;19.80;99.90;;;;;;5072989;28;19932;-68
2022/08/24 00:32:00;;;;;;;;;;;19.70;99.90;;;;;;5072920;28;20381;-69
2022/08/24 00:34:28;;;;;;;;;;;19.70;99.90;;;;;;5069907;28;19982;-68
2022/08/24 00:36:57;;;;;;;;;;;19.70;99.90;;;;;;5071257;28;19924;-68
2022/08/24 00:39:24;;;;;;;;;;;19.70;99.90;;;;;;5070193;28;20315;-68
2022/08/24 00:41:51;;;;;;;;;;;19.60;99.90;;;;;;5068771;28;20453;-68
2022/08/24 00:44:19;;;;;;;;;;;19.60;99.90;;;;;;5072883;28;19932;-68
2022/08/24 00:46:48;;;;;;;;;;;19.60;99.90;;;;;;5072476;28;19931;-68
2022/08/24 00:49:20;;;;;;;;;;;19.50;99.90;;;;;;5067283;28;19936;-68
2022/08/24 00:51:50;;;;;;;;;;;19.50;99.90;;;;;;5072801;28;19931;-68
2022/08/24 00:54:19;;;;;;;;;;;19.50;99.90;;;;;;5072737;28;19924;-68
2022/08/24 00:56:48;;;;;;;;;;;19.50;99.90;;;;;;5072351;28;19924;-68
2022/08/24 00:59:18;;;;;;;;;;;19.40;99.90;;;;;;5069140;28;19932;-68
2022/08/24 01:01:45;;;;;;;;;;;19.40;99.90;;;;;;5072041;28;19963;-68
2022/08/24 01:04:14;;;;;;;;;;;19.30;99.90;;;;;;5070407;28;19931;-68
2022/08/24 01:06:41;;;;;;;;;;;19.30;99.90;;;;;;5063308;28;19924;-68
2022/08/24 01:09:08;;;;;;;;;;;19.40;99.90;;;;;;5072218;28;19924;-68
2022/08/24 01:11:36;;;;;;;;;;;19.30;99.90;;;;;;5072199;28;20404;-69
2022/08/24 01:14:04;;;;;;;;;;;19.20;99.90;;;;;;5072701;28;19931;-69
2022/08/24 01:19:17;;;;;;;;;;;19.20;99.90;;;;;;5071970;28;20299;-68
2022/08/24 01:21:50;;;;;;;;;;;19.20;99.90;;;;;;5072180;28;19968;-68
2022/08/24 01:24:18;;;;;;;;;;;19.20;99.90;;;;;;5071400;28;19925;-68
2022/08/24 01:26:46;;;;;;;;;;;19.20;99.90;;;;;;5072137;28;20400;-68
2022/08/24 01:29:15;;;;;;;;;;;19.20;99.90;;;;;;5071995;28;19933;-68
2022/08/24 01:31:42;;;;;;;;;;;19.20;99.90;;;;;;5072069;28;20433;-68
2022/08/24 01:34:09;;;;;;;;;;;19.10;99.90;;;;;;5068090;28;19928;-68
2022/08/24 01:36:38;;;;;;;;;;;19.10;99.90;;;;;;5071628;28;19925;-68
2022/08/24 01:39:08;;;;;;;;;;;19.10;99.90;;;;;;5071530;28;19925;-68
2022/08/24 01:41:36;;;;;;;;;;;19.00;99.90;;;;;;5071910;28;20405;-68
2022/08/24 01:44:04;;;;;;;;;;;19.00;99.90;;;;;;5069920;28;19924;-68
2022/08/24 01:46:31;;;;;;;;;;;19.00;99.90;;;;;;5071485;28;20365;-68
2022/08/24 01:48:58;;;;;;;;;;;19.00;99.90;;;;;;5071093;28;19944;-68
2022/08/24 01:51:25;;;;;;;;;;;18.90;99.90;;;;;;5068971;28;19974;-69
2022/08/24 01:53:52;;;;;;;;;;;18.90;99.90;;;;;;5068170;28;19932;-69
2022/08/24 01:56:19;;;;;;;;;;;18.90;99.90;;;;;;5067875;28;20368;-68
2022/08/24 01:58:49;;;;;;;;;;;18.80;99.90;;;;;;5070998;28;19956;-68
2022/08/24 02:01:18;;;;;;;;;;;18.80;99.90;;;;;;5071501;28;19931;-69
2022/08/24 02:03:45;;;;;;;;;;;18.70;99.90;;;;;;5071613;28;20027;-68
2022/08/24 02:06:12;;;;;;;;;;;18.70;99.90;;;;;;5071610;28;19924;-68
2022/08/24 02:08:38;;;;;;;;;;;18.70;99.90;;;;;;5071181;28;20395;-68
2022/08/24 02:11:06;;;;;;;;;;;18.70;99.90;;;;;;5065950;28;20281;-68
2022/08/24 02:13:34;;;;;;;;;;;18.60;99.90;;;;;;5069037;28;20346;-68
2022/08/24 02:16:02;;;;;;;;;;;18.60;99.90;;;;;;5070837;28;19925;-68
2022/08/24 02:18:33;;;;;;;;;;;18.60;99.90;;;;;;5071055;28;19956;-68
2022/08/24 02:21:00;;;;;;;;;;;18.50;99.90;;;;;;5070889;28;19974;-68
2022/08/24 02:23:28;;;;;;;;;;;18.50;99.90;;;;;;5070937;28;19925;-68
2022/08/24 02:25:54;;;;;;;;;;;18.50;99.90;;;;;;5067115;28;20343;-68
2022/08/24 02:28:22;;;;;;;;;;;18.50;99.90;;;;;;5067014;28;19925;-68
2022/08/24 02:30:49;;;;;;;;;;;18.50;99.90;;;;;;5068784;28;19932;-68
2022/08/24 02:33:17;;;;;;;;;;;18.60;99.90;;;;;;5071022;28;20009;-68
2022/08/24 02:35:44;;;;;;;;;;;18.60;99.90;;;;;;5070689;28;20066;-69
2022/08/24 02:38:11;;;;;;;;;;;18.50;99.90;;;;;;5069835;28;19925;-68
2022/08/24 02:40:39;;;;;;;;;;;18.50;99.90;;;;;;5069613;28;20402;-68
2022/08/24 02:43:05;;;;;;;;;;;18.50;99.90;;;;;;5067840;28;20023;-68
2022/08/24 02:45:32;;;;;;;;;;;18.40;99.90;;;;;;5060466;28;19925;-69
2022/08/24 02:48:00;;;;;;;;;;;18.40;99.90;;;;;;5066895;28;19925;-68
2022/08/24 02:50:28;;;;;;;;;;;18.40;99.90;;;;;;5067456;28;19928;-68
2022/08/24 02:52:55;;;;;;;;;;;18.40;99.90;;;;;;5067286;28;19947;-68
2022/08/24 02:55:22;;;;;;;;;;;18.40;99.90;;;;;;5066848;28;19924;-68
2022/08/24 02:57:51;;;;;;;;;;;18.40;99.90;;;;;;5066475;28;19960;-68
2022/08/24 03:00:20;;;;;;;;;;;18.30;99.90;;;;;;5062606;28;19924;-68
2022/08/24 03:02:57;;;;;;;;;;;18.30;99.90;;;;;;5066136;28;19928;-68
2022/08/24 03:05:24;;;;;;;;;;;18.20;99.90;;;;;;5067214;28;20368;-68
2022/08/24 03:07:53;;;;;;;;;;;18.20;99.90;;;;;;5070372;28;20442;-68
2022/08/24 03:10:20;;;;;;;;;;;18.10;99.90;;;;;;5070266;28;19925;-68
2022/08/24 03:12:47;;;;;;;;;;;18.10;99.90;;;;;;5070256;28;20057;-69
2022/08/24 03:15:14;;;;;;;;;;;18.10;99.90;;;;;;5069758;28;20019;-68
2022/08/24 03:17:42;;;;;;;;;;;18.10;99.90;;;;;;5070003;28;19931;-68
2022/08/24 03:20:12;;;;;;;;;;;18.10;99.90;;;;;;5064850;28;19924;-68
2022/08/24 03:22:40;;;;;;;;;;;18.10;99.90;;;;;;5068020;28;19924;-68
2022/08/24 03:25:09;;;;;;;;;;;18.10;99.90;;;;;;5060328;28;19944;-69
2022/08/24 03:27:36;;;;;;;;;;;18.10;99.90;;;;;;5068445;28;20303;-67
2022/08/24 03:30:04;;;;;;;;;;;18.10;99.90;;;;;;5061940;28;19924;-67
2022/08/24 03:32:31;;;;;;;;;;;18.00;99.90;;;;;;5087308;28;19928;-67
2022/08/24 03:34:58;;;;;;;;;;;18.00;99.90;;;;;;5070373;28;19928;-66
2022/08/24 03:37:25;;;;;;;;;;;18.00;99.90;;;;;;5070401;28;19938;-67
2022/08/24 03:39:52;;;;;;;;;;;18.00;99.90;;;;;;5067369;28;19925;-67
2022/08/24 03:42:20;;;;;;;;;;;17.90;99.90;;;;;;5063254;28;19932;-67
2022/08/24 03:44:48;;;;;;;;;;;17.90;99.90;;;;;;5068263;28;19974;-67
2022/08/24 03:47:17;;;;;;;;;;;18.00;99.90;;;;;;5065374;28;19925;-67
2022/08/24 03:49:44;;;;;;;;;;;18.00;99.90;;;;;;5069536;28;19976;-67
2022/08/24 03:52:11;;;;;;;;;;;17.90;99.90;;;;;;5068085;28;19925;-67
2022/08/24 03:54:38;;;;;;;;;;;17.90;99.90;;;;;;5062652;28;19927;-67
2022/08/24 03:57:05;;;;;;;;;;;17.90;99.90;;;;;;5069881;28;19925;-67
2022/08/24 03:59:33;;;;;;;;;;;17.90;99.90;;;;;;5069656;28;19928;-67
2022/08/24 04:02:00;;;;;;;;;;;17.90;99.90;;;;;;5069892;28;19931;-67
2022/08/24 04:04:29;;;;;;;;;;;17.90;99.90;;;;;;5066977;28;19928;-67
2022/08/24 04:06:56;;;;;;;;;;;17.80;99.90;;;;;;5070369;28;19947;-67
2022/08/24 04:09:26;;;;;;;;;;;17.80;99.90;;;;;;5064928;28;20019;-67
2022/08/24 04:11:54;;;;;;;;;;;17.80;99.90;;;;;;5062857;28;19963;-67
2022/08/24 04:14:24;;;;;;;;;;;17.70;99.90;;;;;;5065758;28;19924;-66
2022/08/24 04:16:55;;;;;;;;;;;17.70;99.90;;;;;;5066404;28;19924;-67
2022/08/24 04:19:28;;;;;;;;;;;17.70;99.90;;;;;;5073167;28;19929;-67
2022/08/24 04:21:57;;;;;;;;;;;17.60;99.90;;;;;;5070411;28;19960;-67
2022/08/24 04:24:25;;;;;;;;;;;17.60;99.90;;;;;;5064205;28;20293;-67
2022/08/24 04:26:52;;;;;;;;;;;17.60;99.90;;;;;;5084216;28;19924;-67
2022/08/24 04:29:19;;;;;;;;;;;17.60;99.90;;;;;;5062803;28;19967;-67
2022/08/24 04:31:57;;;;;;;;;;;17.60;99.90;;;;;;5071739;28;19924;-67
2022/08/24 04:34:24;;;;;;;;;;;17.60;99.90;;;;;;5066841;28;20408;-67
2022/08/24 04:36:51;;;;;;;;;;;17.60;99.90;;;;;;5073022;28;19925;-67
2022/08/24 04:39:18;;;;;;;;;;;17.50;99.90;;;;;;5070137;28;19929;-67
2022/08/24 04:42:04;;;;;;;;;;;17.60;99.90;;;;;;5062980;28;19932;-67
2022/08/24 04:44:36;;;;;;;;;;;17.50;99.90;;;;;;5088229;28;19924;-67
2022/08/24 04:47:07;;;;;;;;;;;17.50;99.90;;;;;;5068987;28;20380;-67
2022/08/24 04:49:34;;;;;;;;;;;17.50;99.90;;;;;;5070474;28;19974;-67
2022/08/24 04:52:01;;;;;;;;;;;17.50;99.90;;;;;;5075333;28;19932;-67
2022/08/24 04:54:28;;;;;;;;;;;17.40;99.90;;;;;;5073038;28;19966;-67
2022/08/24 04:57:21;;;;;;;;;;;17.50;99.90;;;;;;5074931;28;19931;-67
2022/08/24 04:59:48;;;;;;;;;;;17.50;99.90;;;;;;5072591;28;19929;-67
2022/08/24 05:02:17;;;;;;;;;;;17.50;99.90;;;;;;5070026;28;19933;-66
2022/08/24 05:04:48;;;;;;;;;;;17.50;99.90;;;;;;5068886;28;19928;-67
2022/08/24 05:07:16;;;;;;;;;;;17.50;99.90;;;;;;5070155;28;19982;-67
2022/08/24 05:09:43;;;;;;;;;;;17.50;99.90;;;;;;5069657;28;19990;-68
2022/08/24 05:12:10;;;;;;;;;;;17.60;99.90;;;;;;5071132;28;20415;-68
2022/08/24 05:14:41;;;;;;;;;;;17.60;99.90;;;;;;5070259;28;19924;-68
2022/08/24 05:17:08;;;;;;;;;;;17.70;99.90;;;;;;5071283;28;19928;-68
2022/08/24 05:19:36;;;;;;;;;;;17.80;99.90;;;;;;5070537;28;20391;-67
2022/08/24 05:22:04;;;;;;;;;;;17.90;99.90;;;;;;5071137;28;19924;-67
2022/08/24 05:24:31;;;;;;;;;;;18.00;99.90;;;;;;5062245;28;19928;-67
2022/08/24 05:26:59;;;;;;;;;;;18.00;99.90;;;;;;5064800;28;20039;-67
2022/08/24 05:29:26;;;;;;;;;;;18.10;99.90;;;;;;5070057;28;20403;-66
2022/08/24 05:31:53;;;;;;;;;;;18.00;99.90;;;;;;5085866;28;19930;-66
2022/08/24 05:34:19;;;;;;;;;;;18.00;99.90;;;;;;5070594;28;20363;-66
2022/08/24 05:36:48;;;;;;;;;;;18.10;99.90;;;;;;5070215;28;19940;-66
2022/08/24 05:39:25;;;;;;;;;;;18.20;99.90;;;;;;5070694;28;19940;-66
2022/08/24 05:41:55;;;;;;;;;;;18.20;99.90;;;;;;5070643;28;20415;-65
2022/08/24 05:44:26;;;;;;;;;;;18.30;99.90;;;;;;5069606;28;19932;-66
2022/08/24 05:46:56;;;;;;;;;;;18.40;99.90;;;;;;5070561;28;19928;-66
2022/08/24 05:49:24;;;;;;;;;;;18.40;99.90;;;;;;5069962;28;20023;-66
2022/08/24 05:51:52;;;;;;;;;;;18.50;99.90;;;;;;5079929;22;20031;-70
2022/08/24 05:54:19;;;;;;;;;;;18.60;99.90;;;;;;5057759;28;20023;-72
2022/08/24 05:57:03;;;;;;;;;;;18.70;99.90;;;;;;5053493;28;19925;-71
2022/08/24 05:59:31;;;;;;;;;;;18.80;99.90;;;;;;5063792;28;19928;-72
2022/08/24 06:01:58;;;;;;;;;;;18.90;99.90;;;;;;5040851;28;20024;-72
2022/08/24 06:04:25;;;;;;;;;;;19.00;99.90;;;;;;5038424;28;19932;-69
2022/08/24 06:06:53;;;;;;;;;;;19.10;99.90;;;;;;5035980;28;20036;-68
2022/08/24 06:09:20;;;;;;;;;;;19.20;99.90;;;;;;5044731;28;19925;-69
2022/08/24 06:11:49;;;;;;;;;;;19.30;99.90;;;;;;5042352;28;20414;-69
2022/08/24 06:14:17;;;;;;;;;;;19.40;99.90;;;;;;5043710;28;19926;-68
2022/08/24 06:16:55;;;;;;;;;;;19.50;99.90;;;;;;5039704;28;19925;-69
2022/08/24 06:19:23;;;;;;;;;;;19.60;99.90;;;;;;5044545;28;19933;-69
2022/08/24 06:21:50;;;;;;;;;;;19.80;99.90;;;;;;5040933;28;19968;-69
2022/08/24 06:27:19;;;;;;;;;;;19.90;99.90;;;;;;5036854;28;19925;-69
2022/08/24 06:27:20;;;;;;;;;;;20.00;99.90;;;;;;5042928;28;19925;-69
2022/08/24 06:29:47;;;;;;;;;;;20.10;99.90;;;;;;5038886;28;19948;-69
2022/08/24 06:32:31;;;;;;;;;;;20.20;99.90;;;;;;5040830;28;19931;-69
2022/08/24 06:34:58;;;;;;;;;;;20.30;99.90;;;;;;5043108;28;20335;-68
2022/08/24 06:37:26;;;;;;;;;;;20.40;99.90;;;;;;5040664;28;20011;-68
2022/08/24 06:39:55;;;;;;;;;;;20.50;99.90;;;;;;5031286;28;20388;-69
2022/08/24 06:42:23;;;;;;;;;;;20.60;99.90;;;;;;5036695;28;20371;-69
2022/08/24 06:44:50;;;;;;;;;;;20.70;99.90;;;;;;5029512;28;20452;-69
2022/08/24 06:47:21;;;;;;;;;;;20.80;99.90;;;;;;5034729;28;20377;-70
2022/08/24 06:49:53;;;;;;;;;;;20.90;99.90;;;;;;5044414;28;20023;-68
2022/08/24 06:52:21;;;;;;;;;;;21.00;99.90;;;;;;5043502;28;19932;-69
2022/08/24 06:54:48;;;;;;;;;;;21.10;99.90;;;;;;5044597;28;20385;-69
2022/08/24 06:57:16;;;;;;;;;;;21.20;99.90;;;;;;5041531;28;19987;-69
2022/08/24 06:59:43;;;;;;;;;;;21.30;99.90;;;;;;5034898;28;19975;-68
2022/08/24 07:02:14;;;;;;;;;;;21.40;99.90;;;;;;5043218;28;19931;-68
2022/08/24 07:04:41;;;;;;;;;;;21.50;99.90;;;;;;5035841;28;19928;-69
2022/08/24 07:07:28;;;;;;;;;;;21.60;99.90;;;;;;5045243;28;19935;-69
2022/08/24 07:09:55;;;;;;;;;;;21.70;99.90;;;;;;5034646;28;19925;-69
2022/08/24 07:12:25;;;;;;;;;;;21.70;99.90;;;;;;5040575;28;19925;-68
2022/08/24 07:14:53;;;;;;;;;;;21.80;99.90;;;;;;5027370;28;19932;-70
2022/08/24 07:17:20;;;;;;;;;;;21.90;99.90;;;;;;5034336;28;20296;-69
2022/08/24 07:19:47;;;;;;;;;;;21.90;99.90;;;;;;5043286;28;19928;-70
2022/08/24 07:22:27;;;;;;;;;;;22.00;99.90;;;;;;5037019;28;19925;-70
2022/08/24 07:24:54;;;;;;;;;;;22.10;99.90;;;;;;5042541;28;19962;-68
2022/08/24 07:27:23;;;;;;;;;;;22.20;99.90;;;;;;5036776;28;20373;-68
2022/08/24 07:29:53;;;;;;;;;;;22.30;99.90;;;;;;5043055;28;19932;-69
2022/08/24 07:32:20;;;;;;;;;;;22.40;99.90;;;;;;5036987;28;19969;-68
2022/08/24 07:34:49;;;;;;;;;;;22.50;99.90;;;;;;5040895;28;20453;-68
2022/08/24 07:37:17;;;;;;;;;;;22.60;99.90;;;;;;5039908;28;19929;-69
2022/08/24 07:39:47;;;;;;;;;;;22.70;99.90;;;;;;5040477;28;19925;-68
2022/08/24 07:42:17;;;;;;;;;;;22.80;99.90;;;;;;5040570;28;19925;-69
2022/08/24 07:44:46;;;;;;;;;;;22.90;99.90;;;;;;5037139;28;19925;-68
2022/08/24 07:47:13;;;;;;;;;;;23.00;99.90;;;;;;5041181;28;19925;-68
2022/08/24 07:49:40;;;;;;;;;;;23.00;99.90;;;;;;5039922;28;19932;-68
2022/08/24 07:52:09;;;;;;;;;;;23.10;99.90;;;;;;5043825;28;19992;-68
2022/08/24 07:54:36;;;;;;;;;;;23.10;99.90;;;;;;5043913;28;19932;-68
2022/08/24 07:57:05;;;;;;;;;;;23.30;99.90;;;;;;5040524;28;19925;-70
2022/08/24 07:59:33;;;;;;;;;;;23.40;99.90;;;;;;5027028;28;19965;-68
2022/08/24 08:02:02;;;;;;;;;;;23.50;99.90;;;;;;5040651;28;19979;-68
2022/08/24 08:04:30;;;;;;;;;;;23.60;99.90;;;;;;5043390;28;19925;-68
2022/08/24 08:06:59;;;;;;;;;;;23.70;99.90;;;;;;5041443;28;19933;-68
2022/08/24 08:09:27;;;;;;;;;;;23.90;99.90;;;;;;5039937;28;20024;-68
2022/08/24 08:11:54;;;;;;;;;;;24.00;99.90;;;;;;5042609;28;19932;-69
2022/08/24 08:14:21;;;;;;;;;;;24.10;99.90;;;;;;5041030;28;19925;-69
2022/08/24 08:16:48;;;;;;;;;;;24.30;99.90;;;;;;5044369;28;20388;-69
2022/08/24 08:19:17;;;;;;;;;;;24.40;99.90;;;;;;5042171;28;19925;-69
2022/08/24 08:24:32;;;;;;;;;;;24.70;99.90;;;;;;5040893;28;19924;-67
2022/08/24 08:27:01;;;;;;;;;;;24.90;99.90;;;;;;5043122;28;19929;-71
2022/08/24 08:29:38;;;;;;;;;;;25.00;99.90;;;;;;5041680;28;20304;-71
2022/08/24 08:32:05;;;;;;;;;;;25.10;99.90;;;;;;5042179;28;19925;-71
2022/08/24 08:34:33;;;;;;;;;;;25.30;99.90;;;;;;5043732;28;20404;-72
2022/08/24 08:37:01;;;;;;;;;;;25.50;99.90;;;;;;5041322;28;19926;-71
2022/08/24 08:39:29;;;;;;;;;;;25.70;99.90;;;;;;5042949;28;19925;-72
2022/08/24 08:42:20;;;;;;;;;;;25.90;99.90;;;;;;5041239;28;19925;-72
2022/08/24 08:44:52;;;;;;;;;;;26.00;99.90;;;;;;5045939;28;20051;-71
2022/08/24 08:47:32;;;;;;;;;;;26.10;99.90;;;;;;5044088;28;19929;-72
2022/08/24 08:50:13;;;;;;;;;;;26.20;99.90;;;;;;5033473;28;19932;-71
2022/08/24 08:53:01;;;;;;;;;;;26.40;99.90;;;;;;5043099;28;19932;-72
2022/08/24 08:55:31;;;;;;;;;;;26.50;99.90;;;;;;5045963;28;19968;-69
2022/08/24 08:58:06;;;;;;;;;;;26.70;99.90;;;;;;5041739;28;19929;-69
2022/08/24 09:00:42;;;;;;;;;;;26.90;99.90;;;;;;5043003;28;19929;-69
2022/08/24 09:03:24;;;;;;;;;;;27.10;99.90;;;;;;5040907;28;19929;-70
2022/08/24 09:06:33;;;;;;;;;;;27.30;99.90;;;;;;5037451;28;19944;-69
2022/08/24 09:09:07;;;;;;;;;;;27.50;99.90;;;;;;5032801;28;20427;-69
2022/08/24 09:11:43;;;;;;;;;;;27.70;99.90;;;;;;5040773;28;19930;-69
2022/08/24 09:14:18;;;;;;;;;;;27.80;99.90;;;;;;5037439;28;19932;-69
2022/08/24 09:16:53;;;;;;;;;;;27.90;99.90;;;;;;5041591;28;19947;-69
2022/08/24 09:19:28;;;;;;;;;;;28.00;99.90;;;;;;5042658;28;19964;-69
2022/08/24 09:22:07;;;;;;;;;;;28.10;99.90;;;;;;5045173;28;20450;-70
2022/08/24 09:24:50;;;;;;;;;;;28.20;99.90;;;;;;5040091;28;19929;-69
2022/08/24 09:27:42;;;;;;;;;;;28.30;99.90;;;;;;5042921;28;20403;-69
2022/08/24 09:30:15;;;;;;;;;;;28.50;99.90;;;;;;5040114;28;20408;-69
2022/08/24 09:32:53;;;;;;;;;;;28.50;99.90;;;;;;5042798;28;19925;-69
2022/08/24 09:35:22;;;;;;;;;;;28.50;99.90;;;;;;5039852;28;19979;-69
2022/08/24 09:37:57;;;;;;;;;;;28.50;99.90;;;;;;5045309;28;19933;-69
2022/08/24 09:40:34;;;;;;;;;;;28.60;99.90;;;;;;5041196;28;20404;-69
2022/08/24 09:43:23;;;;;;;;;;;28.70;99.90;;;;;;5035731;28;19925;-70
2022/08/24 09:46:18;;;;;;;;;;;28.90;99.90;;;;;;5045747;28;19928;-69
2022/08/24 09:48:59;;;;;;;;;;;29.10;99.90;;;;;;5042898;28;19975;-68
2022/08/24 09:51:52;;;;;;;;;;;29.30;99.90;;;;;;5036337;28;19925;-71
2022/08/24 09:54:41;;;;;;;;;;;29.60;99.90;;;;;;5039133;28;20331;-72
2022/08/24 09:57:17;;;;;;;;;;;29.70;99.90;;;;;;5039876;28;19925;-72
2022/08/24 09:59:58;;;;;;;;;;;29.70;99.90;;;;;;5040151;28;19932;-73
2022/08/24 10:02:39;;;;;;;;;;;29.90;99.90;;;;;;5041216;28;20335;-71
2022/08/24 10:05:10;;;;;;;;;;;30.00;99.90;;;;;;5029117;28;19932;-72
2022/08/24 10:07:40;;;;;;;;;;;30.20;99.90;;;;;;5036822;28;20023;-73
2022/08/24 10:10:16;;;;;;;;;;;30.20;99.90;;;;;;5035215;28;19979;-71
2022/08/24 10:12:50;;;;;;;;;;;30.30;99.90;;;;;;5041289;28;20346;-72
2022/08/24 10:15:21;;;;;;;;;;;30.50;99.90;;;;;;5040958;28;19959;-72
2022/08/24 10:17:56;;;;;;;;;;;30.50;99.90;;;;;;5042426;28;19975;-71
2022/08/24 10:20:24;;;;;;;;;;;30.60;99.90;;;;;;5039184;28;19925;-72
2022/08/24 10:22:58;;;;;;;;;;;30.50;99.90;;;;;;5030077;28;19925;-72
2022/08/24 10:25:33;;;;;;;;;;;30.40;99.90;;;;;;5040907;28;19987;-70
2022/08/24 10:28:05;;;;;;;;;;;30.50;99.90;;;;;;5037400;28;20384;-73
2022/08/24 10:30:47;;;;;;;;;;;30.70;99.90;;;;;;5035548;28;19924;-70
2022/08/24 10:33:20;;;;;;;;;;;30.90;99.90;;;;;;5041404;28;19929;-71
2022/08/24 10:36:14;;;;;;;;;;;31.10;99.90;;;;;;5040252;28;20194;-73
2022/08/24 10:41:44;;;;;;;;;;;31.30;99.90;;;;;;5042283;28;19921;-72
2022/08/24 10:44:22;;;;;;;;;;;31.40;99.90;;;;;;5046270;28;19925;-73
2022/08/24 10:46:50;;;;;;;;;;;31.60;99.90;;;;;;5038578;28;20366;-72
2022/08/24 10:49:39;;;;;;;;;;;31.80;99.90;;;;;;5039950;28;19929;-72
2022/08/24 10:52:29;;;;;;;;;;;32.10;99.90;;;;;;5040478;28;20285;-71
2022/08/24 10:54:57;;;;;;;;;;;32.10;99.90;;;;;;5038868;28;19982;-71
2022/08/24 10:57:29;;;;;;;;;;;32.20;99.90;;;;;;5042186;28;19933;-69
2022/08/24 10:59:59;;;;;;;;;;;32.30;99.90;;;;;;5040767;28;19929;-69
2022/08/24 11:02:29;;;;;;;;;;;32.40;99.90;;;;;;5037915;28;20351;-70
2022/08/24 11:04:56;;;;;;;;;;;32.40;99.90;;;;;;5041813;28;19948;-69
2022/08/24 11:07:23;;;;;;;;;;;32.60;99.90;;;;;;5037522;28;19925;-69
2022/08/24 11:09:52;;;;;;;;;;;32.80;99.90;;;;;;5043383;28;19925;-70
2022/08/24 11:12:23;;;;;;;;;;;33.10;99.90;;;;;;5042851;28;19932;-69
2022/08/24 11:14:51;;;;;;;;;;;33.30;99.90;;;;;;5029389;28;20016;-69
2022/08/24 11:17:19;;;;;;;;;;;33.30;99.90;;;;;;5043717;28;20463;-69
2022/08/24 11:19:46;;;;;;;;;;;33.50;99.90;;;;;;5034913;28;19951;-69
2022/08/24 11:22:30;;;;;;;;;;;33.60;99.90;;;;;;5043600;28;20024;-69
2022/08/24 11:24:58;;;;;;;;;;;33.90;99.90;;;;;;5038377;28;19976;-69
2022/08/24 11:27:29;;;;;;;;;;;33.90;99.90;;;;;;5038716;28;20008;-70
2022/08/24 11:29:59;;;;;;;;;;;33.90;99.90;;;;;;5044157;28;19925;-69
2022/08/24 11:32:28;;;;;;;;;;;33.90;99.90;;;;;;5039481;28;20355;-69
2022/08/24 11:34:55;;;;;;;;;;;36.10;99.90;;;;;;5050799;28;19929;-69
2022/08/24 11:37:22;;;;;;;;;;;38.80;99.90;;;;;;5044828;28;19925;-69
2022/08/24 11:39:49;;;;;;;;;;;41.00;99.90;;;;;;5043418;28;19925;-69
2022/08/24 11:42:21;;;;;;;;;;;42.10;99.60;;;;;;5043005;28;20380;-69
2022/08/24 11:44:50;;;;;;;;;;;43.00;98.60;;;;;;5047048;28;19987;-70
2022/08/24 11:47:26;;;;;;;;;;;44.00;97.60;;;;;;5046174;28;20358;-69
2022/08/24 11:49:55;;;;;;;;;;;44.90;96.20;;;;;;5033739;28;20404;-69
2022/08/24 11:52:27;;;;;;;;;;;44.90;95.30;;;;;;5038296;28;19925;-69
2022/08/24 11:54:59;;;;;;;;;;;44.80;95.00;;;;;;5040168;28;19932;-69
2022/08/24 11:57:29;;;;;;;;;;;44.10;94.00;;;;;;5041296;28;19975;-69
2022/08/24 12:00:02;;;;;;;;;;;45.30;93.90;;;;;;5043530;28;19925;-69
2022/08/24 12:02:41;;;;;;;;;;;46.30;93.70;;;;;;5043586;28;19924;-69
2022/08/24 12:05:12;;;;;;;;;;;45.20;93.40;;;;;;5041954;28;19925;-69
2022/08/24 12:07:45;;;;;;;;;;;45.80;93.50;;;;;;5028249;28;19980;-69
2022/08/24 12:10:23;;;;;;;;;;;46.10;92.30;;;;;;5033142;28;19925;-69
2022/08/24 12:12:52;;;;;;;;;;;45.60;92.20;;;;;;5050662;28;19956;-70
2022/08/24 12:15:21;;;;;;;;;;;45.80;92.30;;;;;;5028885;28;19961;-67
2022/08/24 12:17:52;;;;;;;;;;;46.00;92.00;;;;;;5038300;28;19925;-69
2022/08/24 12:20:24;;;;;;;;;;;46.70;91.10;;;;;;5035853;28;19968;-67
2022/08/24 12:22:52;;;;;;;;;;;45.90;90.90;;;;;;5034324;28;19929;-66
2022/08/24 12:28:03;;;;;;;;;;;45.00;90.80;;;;;;5021547;28;19921;-67
2022/08/24 12:30:30;;;;;;;;;;;44.00;90.80;;;;;;5040356;28;19926;-66
2022/08/24 12:33:00;;;;;;;;;;;43.40;90.90;;;;;;5036369;28;19925;-67
2022/08/24 12:35:28;;;;;;;;;;;43.90;90.80;;;;;;5036568;28;19925;-68
2022/08/24 12:37:58;;;;;;;;;;;44.60;90.40;;;;;;5037252;28;20074;-67
2022/08/24 12:40:28;;;;;;;;;;;44.80;90.50;;;;;;5039241;28;20399;-68
2022/08/24 12:42:58;;;;;;;;;;;45.90;90.60;;;;;;5034941;28;19937;-68
2022/08/24 12:45:25;;;;;;;;;;;46.10;90.20;;;;;;5036572;28;19983;-71
2022/08/24 12:47:54;;;;;;;;;;;45.90;90.00;;;;;;5043618;28;19975;-70
2022/08/24 12:50:27;;;;;;;;;;;46.10;89.30;;;;;;5029385;28;19929;-70
2022/08/24 12:53:12;;;;;;;;;;;45.50;89.80;;;;;;5050194;28;19968;-71
2022/08/24 12:55:49;;;;;;;;;;;44.50;88.90;;;;;;5041792;28;20417;-70
2022/08/24 12:58:27;;;;;;;;;;;44.80;89.10;;;;;;5033927;28;19972;-71
2022/08/24 13:00:55;;;;;;;;;;;44.80;88.90;;;;;;5026774;28;19925;-71
2022/08/24 13:03:24;;;;;;;;;;;45.00;88.90;;;;;;5032638;28;19976;-71
2022/08/24 13:05:55;;;;;;;;;;;45.00;89.00;;;;;;5030323;28;19990;-71
2022/08/24 13:08:32;;;;;;;;;;;45.10;88.60;;;;;;5035907;28;19975;-71
2022/08/24 13:11:03;;;;;;;;;;;45.60;89.10;;;;;;5028939;28;19925;-71
2022/08/24 13:13:43;;;;;;;;;;;45.50;88.60;;;;;;5027877;28;19965;-71
2022/08/24 13:16:10;;;;;;;;;;;45.90;88.50;;;;;;5030174;28;19933;-70
2022/08/24 13:18:49;;;;;;;;;;;46.40;87.80;;;;;;5030369;28;19955;-70
2022/08/24 13:21:33;;;;;;;;;;;46.00;86.70;;;;;;5030457;28;19926;-68
2022/08/24 13:24:30;;;;;;;;;;;45.40;86.50;;;;;;5033746;28;19925;-69
2022/08/24 13:26:58;;;;;;;;;;;45.00;86.70;;;;;;4968997;28;19926;-71
2022/08/24 13:29:26;;;;;;;;;;;45.30;86.60;;;;;;5011714;28;19944;-73
2022/08/24 13:31:55;;;;;;;;;;;45.00;86.70;;;;;;5032144;28;20373;-71
2022/08/24 13:34:39;;;;;;;;;;;44.90;86.50;;;;;;5031524;28;20016;-72
2022/08/24 13:37:14;;;;;;;;;;;45.20;87.30;;;;;;5026909;28;19965;-72
2022/08/24 13:39:46;;;;;;;;;;;45.30;86.10;;;;;;5028543;28;19932;-71
2022/08/24 13:42:20;;;;;;;;;;;45.30;85.20;;;;;;5026862;28;19933;-72
2022/08/24 13:44:53;;;;;;;;;;;45.90;85.70;;;;;;5035082;28;19925;-72
2022/08/24 13:47:22;;;;;;;;;;;46.20;85.70;;;;;;5027220;28;20419;-72
2022/08/24 13:49:53;;;;;;;;;;;45.60;86.00;;;;;;5031522;28;20036;-72
2022/08/24 13:52:28;;;;;;;;;;;45.40;84.90;;;;;;5035125;28;19925;-72
2022/08/24 13:55:05;;;;;;;;;;;45.20;84.30;;;;;;5031325;28;19931;-71
2022/08/24 13:57:36;;;;;;;;;;;44.50;84.50;;;;;;5027774;28;20036;-71
2022/08/24 14:00:29;;;;;;;;;;;43.60;84.70;;;;;;5033261;28;20028;-69
2022/08/24 14:03:01;;;;;;;;;;;43.60;85.80;;;;;;5022198;28;20008;-70
2022/08/24 14:05:32;;;;;;;;;;;44.20;85.20;;;;;;5024145;28;19925;-71
2022/08/24 14:08:10;;;;;;;;;;;44.30;83.90;;;;;;5029182;28;19925;-72
2022/08/24 14:10:41;;;;;;;;;;;44.60;85.60;;;;;;5028293;28;19932;-71
2022/08/24 14:13:17;;;;;;;;;;;43.50;84.80;;;;;;5027510;28;20475;-70
2022/08/24 14:15:48;;;;;;;;;;;42.70;85.30;;;;;;5030352;28;20420;-69
2022/08/24 14:18:21;;;;;;;;;;;42.00;85.40;;;;;;5025236;28;19925;-68
2022/08/24 14:21:00;;;;;;;;;;;41.80;86.30;;;;;;5030347;28;20441;-68
2022/08/24 14:23:34;;;;;;;;;;;42.30;84.90;;;;;;5025135;28;20009;-69
2022/08/24 14:26:19;;;;;;;;;;;42.20;84.80;;;;;;5029643;28;20029;-71
2022/08/24 14:28:46;;;;;;;;;;;41.90;86.30;;;;;;5026715;28;19968;-69
2022/08/24 14:31:15;;;;;;;;;;;41.60;86.00;;;;;;5025587;28;20380;-70
2022/08/24 14:33:47;;;;;;;;;;;41.50;86.10;;;;;;5031686;28;19941;-72
2022/08/24 14:36:16;;;;;;;;;;;41.70;85.30;;;;;;5029837;28;20388;-72
2022/08/24 14:38:52;;;;;;;;;;;41.90;84.20;;;;;;5029429;28;19947;-70
2022/08/24 14:41:24;;;;;;;;;;;41.80;84.60;;;;;;5027994;28;20012;-68
2022/08/24 14:44:05;;;;;;;;;;;42.20;84.50;;;;;;5029885;28;20305;-71
2022/08/24 14:46:35;;;;;;;;;;;42.90;84.00;;;;;;5030867;28;19929;-67
2022/08/24 14:49:07;;;;;;;;;;;43.30;84.90;;;;;;5027404;28;20419;-66